sensor_id;sensor_type;location;lat;lon;timestamp;P1;P2;P0
49644;PMS5003;36494;50.730;-1.932;2023-02-01T00:01:26;7;7;
49644;PMS5003;36494;50.730;-1.932;2023-02-01T00:03:51;11;11;
49644;PMS5003;36494;50.730;-1.932;2023-02-01T00:06:17;13;12;
49644;PMS5003;36494;50.730;-1.932;2023-02-01T00:08:42;9;8;
49644;PMS5003;36494;50.730;-1.932;2023-02-01T00:11:08;9;8;
49644;PMS5003;36494;50.730;-1.932;2023-02-01T00:13:33;8;7;
49644;PMS5003;36494;50.730;-1.932;2023-02-01T00:16:04;11;10;
49644;PMS5003;36494;50.730;-1.932;2023-02-01T00:18:23;9;7;
49644;PMS5003;36494;50.730;-1.932;2023-02-01T00:20:49;8;7;
49644;PMS5003;36494;50.730;-1.932;2023-02-01T00:23:14;10;9;
49644;PMS5003;36494;50.730;-1.932;2023-02-01T00:25:39;8;7;
49644;PMS5003;36494;50.730;-1.932;2023-02-01T00:28:05;9;8;
49644;PMS5003;36494;50.730;-1.932;2023-02-01T00:30:30;12;10;
49644;PMS5003;36494;50.730;-1.932;2023-02-01T00:32:56;10;7;
49644;PMS5003;36494;50.730;-1.932;2023-02-01T00:35:22;8;8;
49644;PMS5003;36494;50.730;-1.932;2023-02-01T00:37:47;9;9;
49644;PMS5003;36494;50.730;-1.932;2023-02-01T00:40:13;7;7;
49644;PMS5003;36494;50.730;-1.932;2023-02-01T00:42:38;8;7;
49644;PMS5003;36494;50.730;-1.932;2023-02-01T00:45:04;8;6;
49644;PMS5003;36494;50.730;-1.932;2023-02-01T00:47:29;12;10;
49644;PMS5003;36494;50.730;-1.932;2023-02-01T00:49:54;9;8;
49644;PMS5003;36494;50.730;-1.932;2023-02-01T00:52:20;11;11;
49644;PMS5003;36494;50.730;-1.932;2023-02-01T00:54:46;12;12;
49644;PMS5003;36494;50.730;-1.932;2023-02-01T00:57:12;9;8;
49644;PMS5003;36494;50.730;-1.932;2023-02-01T00:59:37;11;9;
49644;PMS5003;36494;50.730;-1.932;2023-02-01T01:02:02;8;8;
49644;PMS5003;36494;50.730;-1.932;2023-02-01T01:04:27;7;7;
49644;PMS5003;36494;50.730;-1.932;2023-02-01T01:06:52;8;7;
49644;PMS5003;36494;50.730;-1.932;2023-02-01T01:09:18;8;7;
49644;PMS5003;36494;50.730;-1.932;2023-02-01T01:11:43;14;10;
49644;PMS5003;36494;50.730;-1.932;2023-02-01T01:14:08;12;10;
49644;PMS5003;36494;50.730;-1.932;2023-02-01T01:16:34;7;7;
49644;PMS5003;36494;50.730;-1.932;2023-02-01T01:18:59;7;7;
49644;PMS5003;36494;50.730;-1.932;2023-02-01T01:21:25;10;9;
49644;PMS5003;36494;50.730;-1.932;2023-02-01T01:23:50;10;8;
49644;PMS5003;36494;50.730;-1.932;2023-02-01T01:26:16;8;6;
49644;PMS5003;36494;50.730;-1.932;2023-02-01T01:28:41;9;9;
49644;PMS5003;36494;50.730;-1.932;2023-02-01T01:31:07;8;6;
49644;PMS5003;36494;50.730;-1.932;2023-02-01T01:33:31;8;8;
49644;PMS5003;36494;50.730;-1.932;2023-02-01T01:35:56;11;9;
49644;PMS5003;36494;50.730;-1.932;2023-02-01T01:38:21;6;6;
49644;PMS5003;36494;50.730;-1.932;2023-02-01T01:40:47;6;6;
49644;PMS5003;36494;50.730;-1.932;2023-02-01T01:43:13;8;7;
49644;PMS5003;36494;50.730;-1.932;2023-02-01T01:45:37;10;8;
49644;PMS5003;36494;50.730;-1.932;2023-02-01T01:48:03;10;8;
49644;PMS5003;36494;50.730;-1.932;2023-02-01T01:50:29;10;10;
49644;PMS5003;36494;50.730;-1.932;2023-02-01T01:52:54;8;6;
49644;PMS5003;36494;50.730;-1.932;2023-02-01T01:55:19;11;10;
49644;PMS5003;36494;50.730;-1.932;2023-02-01T01:57:46;9;9;
49644;PMS5003;36494;50.730;-1.932;2023-02-01T02:00:11;8;8;
49644;PMS5003;36494;50.730;-1.932;2023-02-01T02:02:35;7;6;
49644;PMS5003;36494;50.730;-1.932;2023-02-01T02:05:00;6;5;
49644;PMS5003;36494;50.730;-1.932;2023-02-01T02:07:26;6;6;
49644;PMS5003;36494;50.730;-1.932;2023-02-01T02:09:50;7;6;
49644;PMS5003;36494;50.730;-1.932;2023-02-01T02:12:16;8;8;
49644;PMS5003;36494;50.730;-1.932;2023-02-01T02:14:41;6;5;
49644;PMS5003;36494;50.730;-1.932;2023-02-01T02:17:11;9;9;
49644;PMS5003;36494;50.730;-1.932;2023-02-01T02:24:30;9;8;
49644;PMS5003;36494;50.730;-1.932;2023-02-01T02:26:59;8;7;
49644;PMS5003;36494;50.730;-1.932;2023-02-01T02:29:20;6;5;
49644;PMS5003;36494;50.730;-1.932;2023-02-01T02:31:42;10;10;
49644;PMS5003;36494;50.730;-1.932;2023-02-01T02:34:06;8;7;
49644;PMS5003;36494;50.730;-1.932;2023-02-01T02:36:31;11;11;
49644;PMS5003;36494;50.730;-1.932;2023-02-01T02:38:56;8;6;
49644;PMS5003;36494;50.730;-1.932;2023-02-01T02:41:22;9;7;
49644;PMS5003;36494;50.730;-1.932;2023-02-01T02:43:47;6;6;
49644;PMS5003;36494;50.730;-1.932;2023-02-01T02:46:14;8;7;
49644;PMS5003;36494;50.730;-1.932;2023-02-01T02:48:37;9;6;
49644;PMS5003;36494;50.730;-1.932;2023-02-01T02:51:03;8;8;
49644;PMS5003;36494;50.730;-1.932;2023-02-01T02:53:28;11;8;
49644;PMS5003;36494;50.730;-1.932;2023-02-01T02:55:52;9;8;
49644;PMS5003;36494;50.730;-1.932;2023-02-01T02:58:18;7;7;
49644;PMS5003;36494;50.730;-1.932;2023-02-01T03:00:43;9;7;
49644;PMS5003;36494;50.730;-1.932;2023-02-01T03:03:08;7;6;
49644;PMS5003;36494;50.730;-1.932;2023-02-01T03:05:34;7;6;
49644;PMS5003;36494;50.730;-1.932;2023-02-01T03:08:02;8;7;
49644;PMS5003;36494;50.730;-1.932;2023-02-01T03:10:27;7;6;
49644;PMS5003;36494;50.730;-1.932;2023-02-01T03:12:50;10;8;
49644;PMS5003;36494;50.730;-1.932;2023-02-01T03:15:16;9;8;
49644;PMS5003;36494;50.730;-1.932;2023-02-01T03:17:41;7;7;
49644;PMS5003;36494;50.730;-1.932;2023-02-01T03:20:07;7;7;
49644;PMS5003;36494;50.730;-1.932;2023-02-01T03:22:32;11;9;
49644;PMS5003;36494;50.730;-1.932;2023-02-01T03:25:00;5;5;
49644;PMS5003;36494;50.730;-1.932;2023-02-01T03:27:24;8;7;
49644;PMS5003;36494;50.730;-1.932;2023-02-01T03:29:49;6;6;
49644;PMS5003;36494;50.730;-1.932;2023-02-01T03:32:14;8;7;
49644;PMS5003;36494;50.730;-1.932;2023-02-01T03:34:39;6;6;
49644;PMS5003;36494;50.730;-1.932;2023-02-01T03:37:05;5;4;
49644;PMS5003;36494;50.730;-1.932;2023-02-01T03:39:31;9;8;
49644;PMS5003;36494;50.730;-1.932;2023-02-01T03:41:56;8;8;
49644;PMS5003;36494;50.730;-1.932;2023-02-01T03:44:22;11;10;
49644;PMS5003;36494;50.730;-1.932;2023-02-01T03:46:47;8;6;
49644;PMS5003;36494;50.730;-1.932;2023-02-01T03:49:22;9;8;
49644;PMS5003;36494;50.730;-1.932;2023-02-01T03:51:38;8;7;
49644;PMS5003;36494;50.730;-1.932;2023-02-01T03:54:03;7;7;
49644;PMS5003;36494;50.730;-1.932;2023-02-01T03:56:28;9;7;
49644;PMS5003;36494;50.730;-1.932;2023-02-01T03:58:53;6;6;
49644;PMS5003;36494;50.730;-1.932;2023-02-01T04:01:18;6;5;
49644;PMS5003;36494;50.730;-1.932;2023-02-01T04:03:44;8;8;
49644;PMS5003;36494;50.730;-1.932;2023-02-01T04:06:09;7;7;
49644;PMS5003;36494;50.730;-1.932;2023-02-01T04:08:35;7;6;
49644;PMS5003;36494;50.730;-1.932;2023-02-01T04:11:00;6;6;
49644;PMS5003;36494;50.730;-1.932;2023-02-01T04:13:26;8;7;
49644;PMS5003;36494;50.730;-1.932;2023-02-01T04:15:51;8;7;
49644;PMS5003;36494;50.730;-1.932;2023-02-01T04:18:16;9;9;
49644;PMS5003;36494;50.730;-1.932;2023-02-01T04:20:42;11;8;
49644;PMS5003;36494;50.730;-1.932;2023-02-01T04:23:07;9;8;
49644;PMS5003;36494;50.730;-1.932;2023-02-01T04:25:33;9;8;
49644;PMS5003;36494;50.730;-1.932;2023-02-01T04:27:58;10;8;
49644;PMS5003;36494;50.730;-1.932;2023-02-01T04:30:23;9;8;
49644;PMS5003;36494;50.730;-1.932;2023-02-01T04:32:48;7;6;
49644;PMS5003;36494;50.730;-1.932;2023-02-01T04:35:14;11;9;
49644;PMS5003;36494;50.730;-1.932;2023-02-01T04:37:39;8;7;
49644;PMS5003;36494;50.730;-1.932;2023-02-01T04:40:04;8;7;
49644;PMS5003;36494;50.730;-1.932;2023-02-01T04:42:29;8;8;
49644;PMS5003;36494;50.730;-1.932;2023-02-01T04:44:55;6;6;
49644;PMS5003;36494;50.730;-1.932;2023-02-01T04:47:20;10;8;
49644;PMS5003;36494;50.730;-1.932;2023-02-01T04:49:45;9;8;
49644;PMS5003;36494;50.730;-1.932;2023-02-01T04:52:10;9;9;
49644;PMS5003;36494;50.730;-1.932;2023-02-01T04:54:37;14;11;
49644;PMS5003;36494;50.730;-1.932;2023-02-01T04:57:01;8;7;
49644;PMS5003;36494;50.730;-1.932;2023-02-01T04:59:27;11;9;
49644;PMS5003;36494;50.730;-1.932;2023-02-01T05:01:52;6;5;
49644;PMS5003;36494;50.730;-1.932;2023-02-01T05:04:18;8;8;
49644;PMS5003;36494;50.730;-1.932;2023-02-01T05:06:43;11;6;
49644;PMS5003;36494;50.730;-1.932;2023-02-01T05:09:09;10;7;
49644;PMS5003;36494;50.730;-1.932;2023-02-01T05:11:35;8;7;
49644;PMS5003;36494;50.730;-1.932;2023-02-01T05:14:00;9;8;
49644;PMS5003;36494;50.730;-1.932;2023-02-01T05:16:25;7;7;
49644;PMS5003;36494;50.730;-1.932;2023-02-01T05:18:51;7;7;
49644;PMS5003;36494;50.730;-1.932;2023-02-01T05:21:17;7;7;
49644;PMS5003;36494;50.730;-1.932;2023-02-01T05:23:42;8;6;
49644;PMS5003;36494;50.730;-1.932;2023-02-01T05:26:07;9;9;
49644;PMS5003;36494;50.730;-1.932;2023-02-01T05:28:32;5;5;
49644;PMS5003;36494;50.730;-1.932;2023-02-01T05:30:57;7;7;
49644;PMS5003;36494;50.730;-1.932;2023-02-01T05:33:22;10;10;
49644;PMS5003;36494;50.730;-1.932;2023-02-01T05:35:47;10;9;
49644;PMS5003;36494;50.730;-1.932;2023-02-01T05:38:13;9;8;
49644;PMS5003;36494;50.730;-1.932;2023-02-01T05:40:38;7;7;
49644;PMS5003;36494;50.730;-1.932;2023-02-01T05:43:04;11;8;
49644;PMS5003;36494;50.730;-1.932;2023-02-01T05:45:29;8;7;
49644;PMS5003;36494;50.730;-1.932;2023-02-01T05:47:55;10;10;
49644;PMS5003;36494;50.730;-1.932;2023-02-01T05:50:20;10;9;
49644;PMS5003;36494;50.730;-1.932;2023-02-01T05:52:46;10;9;
49644;PMS5003;36494;50.730;-1.932;2023-02-01T05:55:11;11;9;
49644;PMS5003;36494;50.730;-1.932;2023-02-01T05:57:36;9;8;
49644;PMS5003;36494;50.730;-1.932;2023-02-01T06:00:02;10;8;
49644;PMS5003;36494;50.730;-1.932;2023-02-01T06:02:27;9;7;
49644;PMS5003;36494;50.730;-1.932;2023-02-01T06:04:52;7;7;
49644;PMS5003;36494;50.730;-1.932;2023-02-01T06:07:17;9;8;
49644;PMS5003;36494;50.730;-1.932;2023-02-01T06:09:43;6;6;
49644;PMS5003;36494;50.730;-1.932;2023-02-01T06:12:08;11;9;
49644;PMS5003;36494;50.730;-1.932;2023-02-01T06:14:33;6;6;
49644;PMS5003;36494;50.730;-1.932;2023-02-01T06:16:59;6;6;
49644;PMS5003;36494;50.730;-1.932;2023-02-01T06:19:24;8;7;
49644;PMS5003;36494;50.730;-1.932;2023-02-01T06:21:49;8;6;
49644;PMS5003;36494;50.730;-1.932;2023-02-01T06:24:15;6;6;
49644;PMS5003;36494;50.730;-1.932;2023-02-01T06:26:41;7;7;
49644;PMS5003;36494;50.730;-1.932;2023-02-01T06:29:06;7;7;
49644;PMS5003;36494;50.730;-1.932;2023-02-01T06:31:31;9;9;
49644;PMS5003;36494;50.730;-1.932;2023-02-01T06:33:56;5;4;
49644;PMS5003;36494;50.730;-1.932;2023-02-01T06:36:22;16;13;
49644;PMS5003;36494;50.730;-1.932;2023-02-01T06:38:47;6;6;
49644;PMS5003;36494;50.730;-1.932;2023-02-01T06:41:12;9;8;
49644;PMS5003;36494;50.730;-1.932;2023-02-01T06:43:38;5;5;
49644;PMS5003;36494;50.730;-1.932;2023-02-01T06:46:05;5;5;
49644;PMS5003;36494;50.730;-1.932;2023-02-01T06:48:28;6;6;
49644;PMS5003;36494;50.730;-1.932;2023-02-01T06:50:54;9;9;
49644;PMS5003;36494;50.730;-1.932;2023-02-01T06:53:19;10;9;
49644;PMS5003;36494;50.730;-1.932;2023-02-01T06:58:09;7;6;
49644;PMS5003;36494;50.730;-1.932;2023-02-01T07:00:35;6;6;
49644;PMS5003;36494;50.730;-1.932;2023-02-01T07:03:00;7;5;
49644;PMS5003;36494;50.730;-1.932;2023-02-01T07:05:26;10;9;
49644;PMS5003;36494;50.730;-1.932;2023-02-01T07:07:51;7;7;
49644;PMS5003;36494;50.730;-1.932;2023-02-01T07:10:17;7;5;
49644;PMS5003;36494;50.730;-1.932;2023-02-01T07:12:42;11;9;
49644;PMS5003;36494;50.730;-1.932;2023-02-01T07:15:08;11;11;
49644;PMS5003;36494;50.730;-1.932;2023-02-01T07:17:33;8;7;
49644;PMS5003;36494;50.730;-1.932;2023-02-01T07:19:58;9;8;
49644;PMS5003;36494;50.730;-1.932;2023-02-01T07:22:24;6;5;
49644;PMS5003;36494;50.730;-1.932;2023-02-01T07:24:49;9;8;
49644;PMS5003;36494;50.730;-1.932;2023-02-01T07:27:14;9;9;
49644;PMS5003;36494;50.730;-1.932;2023-02-01T07:29:40;8;7;
49644;PMS5003;36494;50.730;-1.932;2023-02-01T07:32:05;10;10;
49644;PMS5003;36494;50.730;-1.932;2023-02-01T07:34:30;12;10;
49644;PMS5003;36494;50.730;-1.932;2023-02-01T07:36:55;12;11;
49644;PMS5003;36494;50.730;-1.932;2023-02-01T07:39:20;11;9;
49644;PMS5003;36494;50.730;-1.932;2023-02-01T07:41:46;9;8;
49644;PMS5003;36494;50.730;-1.932;2023-02-01T07:44:11;6;6;
49644;PMS5003;36494;50.730;-1.932;2023-02-01T07:46:36;10;9;
49644;PMS5003;36494;50.730;-1.932;2023-02-01T07:49:02;10;9;
49644;PMS5003;36494;50.730;-1.932;2023-02-01T07:51:27;9;8;
49644;PMS5003;36494;50.730;-1.932;2023-02-01T07:53:53;8;7;
49644;PMS5003;36494;50.730;-1.932;2023-02-01T07:56:19;12;9;
49644;PMS5003;36494;50.730;-1.932;2023-02-01T07:58:46;12;11;
49644;PMS5003;36494;50.730;-1.932;2023-02-01T08:01:13;9;8;
49644;PMS5003;36494;50.730;-1.932;2023-02-01T08:03:35;9;9;
49644;PMS5003;36494;50.730;-1.932;2023-02-01T08:06:00;7;6;
49644;PMS5003;36494;50.730;-1.932;2023-02-01T08:08:25;10;10;
49644;PMS5003;36494;50.730;-1.932;2023-02-01T08:10:51;9;8;
49644;PMS5003;36494;50.730;-1.932;2023-02-01T08:13:16;11;10;
49644;PMS5003;36494;50.730;-1.932;2023-02-01T08:15:42;9;7;
49644;PMS5003;36494;50.730;-1.932;2023-02-01T08:18:07;12;12;
49644;PMS5003;36494;50.730;-1.932;2023-02-01T08:20:33;11;10;
49644;PMS5003;36494;50.730;-1.932;2023-02-01T08:22:58;11;10;
49644;PMS5003;36494;50.730;-1.932;2023-02-01T08:25:23;9;8;
49644;PMS5003;36494;50.730;-1.932;2023-02-01T08:27:49;10;10;
49644;PMS5003;36494;50.730;-1.932;2023-02-01T08:30:14;8;8;
49644;PMS5003;36494;50.730;-1.932;2023-02-01T08:32:40;13;12;
49644;PMS5003;36494;50.730;-1.932;2023-02-01T08:35:05;12;12;
49644;PMS5003;36494;50.730;-1.932;2023-02-01T08:37:30;10;10;
49644;PMS5003;36494;50.730;-1.932;2023-02-01T08:39:56;11;11;
49644;PMS5003;36494;50.730;-1.932;2023-02-01T08:42:21;8;7;
49644;PMS5003;36494;50.730;-1.932;2023-02-01T08:44:46;13;11;
49644;PMS5003;36494;50.730;-1.932;2023-02-01T08:47:11;11;8;
49644;PMS5003;36494;50.730;-1.932;2023-02-01T08:49:37;10;9;
49644;PMS5003;36494;50.730;-1.932;2023-02-01T08:52:02;9;8;
49644;PMS5003;36494;50.730;-1.932;2023-02-01T08:54:28;11;10;
49644;PMS5003;36494;50.730;-1.932;2023-02-01T08:56:53;7;5;
49644;PMS5003;36494;50.730;-1.932;2023-02-01T08:59:19;6;6;
49644;PMS5003;36494;50.730;-1.932;2023-02-01T09:01:45;12;12;
49644;PMS5003;36494;50.730;-1.932;2023-02-01T09:04:10;12;9;
49644;PMS5003;36494;50.730;-1.932;2023-02-01T09:06:35;9;8;
49644;PMS5003;36494;50.730;-1.932;2023-02-01T09:09:01;9;8;
49644;PMS5003;36494;50.730;-1.932;2023-02-01T09:11:26;9;8;
49644;PMS5003;36494;50.730;-1.932;2023-02-01T09:13:51;12;11;
49644;PMS5003;36494;50.730;-1.932;2023-02-01T09:16:16;10;10;
49644;PMS5003;36494;50.730;-1.932;2023-02-01T09:18:41;18;18;
49644;PMS5003;36494;50.730;-1.932;2023-02-01T09:21:07;32;31;
49644;PMS5003;36494;50.730;-1.932;2023-02-01T09:23:32;22;21;
49644;PMS5003;36494;50.730;-1.932;2023-02-01T09:25:58;38;38;
49644;PMS5003;36494;50.730;-1.932;2023-02-01T09:28:23;27;25;
49644;PMS5003;36494;50.730;-1.932;2023-02-01T09:30:49;14;13;
49644;PMS5003;36494;50.730;-1.932;2023-02-01T09:33:14;17;16;
49644;PMS5003;36494;50.730;-1.932;2023-02-01T09:35:40;19;17;
49644;PMS5003;36494;50.730;-1.932;2023-02-01T09:38:06;15;13;
49644;PMS5003;36494;50.730;-1.932;2023-02-01T09:40:32;25;23;
49644;PMS5003;36494;50.730;-1.932;2023-02-01T09:43:07;23;22;
49644;PMS5003;36494;50.730;-1.932;2023-02-01T09:45:24;19;18;
49644;PMS5003;36494;50.730;-1.932;2023-02-01T09:47:48;24;24;
49644;PMS5003;36494;50.730;-1.932;2023-02-01T09:50:15;13;12;
49644;PMS5003;36494;50.730;-1.932;2023-02-01T09:52:40;19;19;
49644;PMS5003;36494;50.730;-1.932;2023-02-01T09:55:05;36;32;
49644;PMS5003;36494;50.730;-1.932;2023-02-01T09:57:35;41;40;
49644;PMS5003;36494;50.730;-1.932;2023-02-01T09:59:56;14;13;
49644;PMS5003;36494;50.730;-1.932;2023-02-01T10:02:20;14;13;
49644;PMS5003;36494;50.730;-1.932;2023-02-01T10:04:45;16;16;
49644;PMS5003;36494;50.730;-1.932;2023-02-01T10:07:13;20;20;
49644;PMS5003;36494;50.730;-1.932;2023-02-01T10:09:41;14;14;
49644;PMS5003;36494;50.730;-1.932;2023-02-01T10:12:08;11;10;
49644;PMS5003;36494;50.730;-1.932;2023-02-01T10:14:32;22;22;
49644;PMS5003;36494;50.730;-1.932;2023-02-01T10:16:54;8;6;
49644;PMS5003;36494;50.730;-1.932;2023-02-01T10:19:24;9;8;
49644;PMS5003;36494;50.730;-1.932;2023-02-01T10:21:46;10;10;
49644;PMS5003;36494;50.730;-1.932;2023-02-01T10:24:12;12;12;
49644;PMS5003;36494;50.730;-1.932;2023-02-01T10:26:35;17;14;
49644;PMS5003;36494;50.730;-1.932;2023-02-01T10:28:59;7;7;
49644;PMS5003;36494;50.730;-1.932;2023-02-01T10:31:24;9;9;
49644;PMS5003;36494;50.730;-1.932;2023-02-01T10:33:50;7;6;
49644;PMS5003;36494;50.730;-1.932;2023-02-01T10:36:15;6;6;
49644;PMS5003;36494;50.730;-1.932;2023-02-01T10:38:39;7;6;
49644;PMS5003;36494;50.730;-1.932;2023-02-01T10:41:08;9;7;
49644;PMS5003;36494;50.730;-1.932;2023-02-01T10:43:30;13;12;
49644;PMS5003;36494;50.730;-1.932;2023-02-01T10:45:55;8;6;
49644;PMS5003;36494;50.730;-1.932;2023-02-01T10:48:20;6;6;
49644;PMS5003;36494;50.730;-1.932;2023-02-01T10:50:47;7;6;
49644;PMS5003;36494;50.730;-1.932;2023-02-01T10:53:11;7;7;
49644;PMS5003;36494;50.730;-1.932;2023-02-01T10:55:37;9;9;
49644;PMS5003;36494;50.730;-1.932;2023-02-01T10:58:02;7;7;
49644;PMS5003;36494;50.730;-1.932;2023-02-01T11:00:27;5;5;
49644;PMS5003;36494;50.730;-1.932;2023-02-01T11:02:52;8;7;
49644;PMS5003;36494;50.730;-1.932;2023-02-01T11:05:17;10;7;
49644;PMS5003;36494;50.730;-1.932;2023-02-01T11:07:46;7;6;
49644;PMS5003;36494;50.730;-1.932;2023-02-01T11:10:10;9;8;
49644;PMS5003;36494;50.730;-1.932;2023-02-01T11:12:34;8;8;
49644;PMS5003;36494;50.730;-1.932;2023-02-01T11:15:01;5;4;
49644;PMS5003;36494;50.730;-1.932;2023-02-01T11:17:26;6;6;
49644;PMS5003;36494;50.730;-1.932;2023-02-01T11:22:15;7;5;
49644;PMS5003;36494;50.730;-1.932;2023-02-01T11:24:41;8;7;
49644;PMS5003;36494;50.730;-1.932;2023-02-01T11:27:12;6;6;
49644;PMS5003;36494;50.730;-1.932;2023-02-01T11:29:32;6;6;
49644;PMS5003;36494;50.730;-1.932;2023-02-01T11:31:57;8;5;
49644;PMS5003;36494;50.730;-1.932;2023-02-01T11:34:23;7;6;
49644;PMS5003;36494;50.730;-1.932;2023-02-01T11:36:48;8;7;
49644;PMS5003;36494;50.730;-1.932;2023-02-01T11:39:21;6;6;
49644;PMS5003;36494;50.730;-1.932;2023-02-01T11:41:42;5;4;
49644;PMS5003;36494;50.730;-1.932;2023-02-01T11:44:15;6;6;
49644;PMS5003;36494;50.730;-1.932;2023-02-01T11:46:29;11;9;
49644;PMS5003;36494;50.730;-1.932;2023-02-01T11:48:54;6;6;
49644;PMS5003;36494;50.730;-1.932;2023-02-01T11:51:23;7;6;
49644;PMS5003;36494;50.730;-1.932;2023-02-01T11:53:51;9;6;
49644;PMS5003;36494;50.730;-1.932;2023-02-01T11:56:12;8;5;
49644;PMS5003;36494;50.730;-1.932;2023-02-01T11:58:40;11;10;
49644;PMS5003;36494;50.730;-1.932;2023-02-01T12:01:06;5;4;
49644;PMS5003;36494;50.730;-1.932;2023-02-01T12:03:31;6;5;
49644;PMS5003;36494;50.730;-1.932;2023-02-01T12:05:53;6;5;
49644;PMS5003;36494;50.730;-1.932;2023-02-01T12:08:21;7;7;
49644;PMS5003;36494;50.730;-1.932;2023-02-01T12:10:44;8;6;
49644;PMS5003;36494;50.730;-1.932;2023-02-01T12:13:10;5;5;
49644;PMS5003;36494;50.730;-1.932;2023-02-01T12:15:36;4;3;
49644;PMS5003;36494;50.730;-1.932;2023-02-01T12:18:02;6;5;
49644;PMS5003;36494;50.730;-1.932;2023-02-01T12:20:28;6;5;
49644;PMS5003;36494;50.730;-1.932;2023-02-01T12:22:50;6;6;
49644;PMS5003;36494;50.730;-1.932;2023-02-01T12:25:16;5;5;
49644;PMS5003;36494;50.730;-1.932;2023-02-01T12:27:48;5;5;
49644;PMS5003;36494;50.730;-1.932;2023-02-01T12:32:32;6;5;
49644;PMS5003;36494;50.730;-1.932;2023-02-01T12:35:04;9;9;
49644;PMS5003;36494;50.730;-1.932;2023-02-01T12:37:22;7;5;
49644;PMS5003;36494;50.730;-1.932;2023-02-01T12:39:46;7;6;
49644;PMS5003;36494;50.730;-1.932;2023-02-01T12:42:11;7;7;
49644;PMS5003;36494;50.730;-1.932;2023-02-01T12:44:39;3;3;
49644;PMS5003;36494;50.730;-1.932;2023-02-01T12:47:03;7;5;
49644;PMS5003;36494;50.730;-1.932;2023-02-01T12:49:28;4;4;
49644;PMS5003;36494;50.730;-1.932;2023-02-01T12:51:52;5;4;
49644;PMS5003;36494;50.730;-1.932;2023-02-01T12:54:18;6;5;
49644;PMS5003;36494;50.730;-1.932;2023-02-01T12:56:43;5;4;
49644;PMS5003;36494;50.730;-1.932;2023-02-01T12:59:11;6;5;
49644;PMS5003;36494;50.730;-1.932;2023-02-01T13:01:34;7;6;
49644;PMS5003;36494;50.730;-1.932;2023-02-01T13:04:02;4;4;
49644;PMS5003;36494;50.730;-1.932;2023-02-01T13:06:27;4;4;
49644;PMS5003;36494;50.730;-1.932;2023-02-01T13:08:52;5;3;
49644;PMS5003;36494;50.730;-1.932;2023-02-01T13:11:18;5;5;
49644;PMS5003;36494;50.730;-1.932;2023-02-01T13:13:44;5;5;
49644;PMS5003;36494;50.730;-1.932;2023-02-01T13:16:12;5;4;
49644;PMS5003;36494;50.730;-1.932;2023-02-01T13:18:34;6;4;
49644;PMS5003;36494;50.730;-1.932;2023-02-01T13:21:03;4;4;
49644;PMS5003;36494;50.730;-1.932;2023-02-01T13:23:25;6;4;
49644;PMS5003;36494;50.730;-1.932;2023-02-01T13:25:50;8;8;
49644;PMS5003;36494;50.730;-1.932;2023-02-01T13:28:17;7;5;
49644;PMS5003;36494;50.730;-1.932;2023-02-01T13:30:47;5;3;
49644;PMS5003;36494;50.730;-1.932;2023-02-01T13:33:11;5;4;
49644;PMS5003;36494;50.730;-1.932;2023-02-01T13:35:39;5;5;
49644;PMS5003;36494;50.730;-1.932;2023-02-01T13:38:06;7;7;
49644;PMS5003;36494;50.730;-1.932;2023-02-01T13:40:26;5;5;
49644;PMS5003;36494;50.730;-1.932;2023-02-01T13:42:48;8;5;
49644;PMS5003;36494;50.730;-1.932;2023-02-01T13:45:14;5;5;
49644;PMS5003;36494;50.730;-1.932;2023-02-01T13:47:39;6;5;
49644;PMS5003;36494;50.730;-1.932;2023-02-01T13:50:12;6;5;
49644;PMS5003;36494;50.730;-1.932;2023-02-01T13:52:32;6;5;
49644;PMS5003;36494;50.730;-1.932;2023-02-01T13:59:49;5;5;
49644;PMS5003;36494;50.730;-1.932;2023-02-01T14:04:45;5;5;
49644;PMS5003;36494;50.730;-1.932;2023-02-01T14:09:31;6;5;
49644;PMS5003;36494;50.730;-1.932;2023-02-01T14:11:55;6;6;
49644;PMS5003;36494;50.730;-1.932;2023-02-01T14:24:04;7;6;
49644;PMS5003;36494;50.730;-1.932;2023-02-01T14:28:55;7;5;
49644;PMS5003;36494;50.730;-1.932;2023-02-01T14:33:44;6;5;
49644;PMS5003;36494;50.730;-1.932;2023-02-01T14:36:10;6;5;
49644;PMS5003;36494;50.730;-1.932;2023-02-01T14:38:35;8;8;
49644;PMS5003;36494;50.730;-1.932;2023-02-01T14:45:51;7;6;
49644;PMS5003;36494;50.730;-1.932;2023-02-01T14:50:42;7;7;
49644;PMS5003;36494;50.730;-1.932;2023-02-01T14:53:14;9;8;
49644;PMS5003;36494;50.730;-1.932;2023-02-01T14:55:34;5;5;
49644;PMS5003;36494;50.730;-1.932;2023-02-01T14:57:59;14;11;
49644;PMS5003;36494;50.730;-1.932;2023-02-01T15:00:25;7;7;
49644;PMS5003;36494;50.730;-1.932;2023-02-01T15:02:49;8;8;
49644;PMS5003;36494;50.730;-1.932;2023-02-01T15:05:24;9;9;
49644;PMS5003;36494;50.730;-1.932;2023-02-01T15:07:39;8;8;
49644;PMS5003;36494;50.730;-1.932;2023-02-01T15:10:05;8;7;
49644;PMS5003;36494;50.730;-1.932;2023-02-01T15:12:31;5;5;
49644;PMS5003;36494;50.730;-1.932;2023-02-01T15:15:05;6;5;
49644;PMS5003;36494;50.730;-1.932;2023-02-01T15:17:22;7;5;
49644;PMS5003;36494;50.730;-1.932;2023-02-01T15:19:52;6;5;
49644;PMS5003;36494;50.730;-1.932;2023-02-01T15:22:17;5;5;
49644;PMS5003;36494;50.730;-1.932;2023-02-01T15:24:37;6;5;
49644;PMS5003;36494;50.730;-1.932;2023-02-01T15:27:03;7;6;
49644;PMS5003;36494;50.730;-1.932;2023-02-01T15:29:28;7;6;
49644;PMS5003;36494;50.730;-1.932;2023-02-01T15:31:53;10;8;
49644;PMS5003;36494;50.730;-1.932;2023-02-01T15:34:19;8;7;
49644;PMS5003;36494;50.730;-1.932;2023-02-01T15:36:44;7;7;
49644;PMS5003;36494;50.730;-1.932;2023-02-01T15:39:13;6;6;
49644;PMS5003;36494;50.730;-1.932;2023-02-01T15:41:34;8;8;
49644;PMS5003;36494;50.730;-1.932;2023-02-01T15:44:03;8;6;
49644;PMS5003;36494;50.730;-1.932;2023-02-01T15:46:29;8;6;
49644;PMS5003;36494;50.730;-1.932;2023-02-01T15:48:50;7;5;
49644;PMS5003;36494;50.730;-1.932;2023-02-01T15:51:15;9;8;
49644;PMS5003;36494;50.730;-1.932;2023-02-01T15:53:42;8;7;
49644;PMS5003;36494;50.730;-1.932;2023-02-01T15:56:05;7;6;
49644;PMS5003;36494;50.730;-1.932;2023-02-01T15:58:30;6;6;
49644;PMS5003;36494;50.730;-1.932;2023-02-01T16:00:56;9;9;
49644;PMS5003;36494;50.730;-1.932;2023-02-01T16:03:24;6;5;
49644;PMS5003;36494;50.730;-1.932;2023-02-01T16:05:46;9;8;
49644;PMS5003;36494;50.730;-1.932;2023-02-01T16:08:12;5;5;
49644;PMS5003;36494;50.730;-1.932;2023-02-01T16:10:38;6;6;
49644;PMS5003;36494;50.730;-1.932;2023-02-01T16:13:02;6;5;
49644;PMS5003;36494;50.730;-1.932;2023-02-01T16:15:28;6;5;
49644;PMS5003;36494;50.730;-1.932;2023-02-01T16:17:52;5;4;
49644;PMS5003;36494;50.730;-1.932;2023-02-01T16:20:18;5;4;
49644;PMS5003;36494;50.730;-1.932;2023-02-01T16:22:43;7;6;
49644;PMS5003;36494;50.730;-1.932;2023-02-01T16:25:09;7;7;
49644;PMS5003;36494;50.730;-1.932;2023-02-01T16:27:34;5;5;
49644;PMS5003;36494;50.730;-1.932;2023-02-01T16:29:59;4;4;
49644;PMS5003;36494;50.730;-1.932;2023-02-01T16:32:24;7;6;
49644;PMS5003;36494;50.730;-1.932;2023-02-01T16:34:49;6;6;
49644;PMS5003;36494;50.730;-1.932;2023-02-01T16:37:16;6;5;
49644;PMS5003;36494;50.730;-1.932;2023-02-01T16:39:40;6;6;
49644;PMS5003;36494;50.730;-1.932;2023-02-01T16:42:09;8;7;
49644;PMS5003;36494;50.730;-1.932;2023-02-01T16:44:30;6;6;
49644;PMS5003;36494;50.730;-1.932;2023-02-01T16:46:55;5;4;
49644;PMS5003;36494;50.730;-1.932;2023-02-01T16:49:21;7;5;
49644;PMS5003;36494;50.730;-1.932;2023-02-01T16:51:46;8;8;
49644;PMS5003;36494;50.730;-1.932;2023-02-01T16:54:11;4;4;
49644;PMS5003;36494;50.730;-1.932;2023-02-01T16:56:37;5;5;